sensor_id;sensor_type;location;lat;lon;timestamp;pressure;altitude;pressure_sealevel;temperature;humidity
37832;BME280;23671;38.090;-122.570;2023-03-21T00:00:57;100990.22;;;18.56;58.41
37832;BME280;23671;38.090;-122.570;2023-03-21T00:03:25;100988.38;;;18.56;58.42
37832;BME280;23671;38.090;-122.570;2023-03-21T00:05:53;100990.56;;;18.53;57.93
37832;BME280;23671;38.090;-122.570;2023-03-21T00:08:21;100982.00;;;18.49;57.95
37832;BME280;23671;38.090;-122.570;2023-03-21T00:10:56;100984.03;;;18.47;58.05
37832;BME280;23671;38.090;-122.570;2023-03-21T00:13:24;100981.38;;;18.47;58.06
37832;BME280;23671;38.090;-122.570;2023-03-21T00:15:52;100980.13;;;18.42;57.54
37832;BME280;23671;38.090;-122.570;2023-03-21T00:18:22;100973.59;;;18.36;58.07
37832;BME280;23671;38.090;-122.570;2023-03-21T00:20:57;100970.13;;;18.36;58.07
37832;BME280;23671;38.090;-122.570;2023-03-21T00:23:28;100974.13;;;18.32;58.11
37832;BME280;23671;38.090;-122.570;2023-03-21T00:25:56;100976.94;;;18.30;58.15
37832;BME280;23671;38.090;-122.570;2023-03-21T00:28:23;100968.25;;;18.28;58.06
37832;BME280;23671;38.090;-122.570;2023-03-21T00:30:55;100964.09;;;18.26;58.18
37832;BME280;23671;38.090;-122.570;2023-03-21T00:33:22;100957.88;;;18.25;58.15
37832;BME280;23671;38.090;-122.570;2023-03-21T00:35:51;100949.84;;;18.17;58.52
37832;BME280;23671;38.090;-122.570;2023-03-21T00:38:23;100945.84;;;18.13;58.40
37832;BME280;23671;38.090;-122.570;2023-03-21T00:40:50;100944.66;;;18.07;58.87
37832;BME280;23671;38.090;-122.570;2023-03-21T00:43:18;100941.13;;;18.07;58.99
37832;BME280;23671;38.090;-122.570;2023-03-21T00:45:50;100946.81;;;18.04;58.63
37832;BME280;23671;38.090;-122.570;2023-03-21T00:48:18;100939.16;;;18.01;58.74
37832;BME280;23671;38.090;-122.570;2023-03-21T00:50:45;100933.63;;;17.94;58.93
37832;BME280;23671;38.090;-122.570;2023-03-21T00:53:14;100931.94;;;17.93;58.86
37832;BME280;23671;38.090;-122.570;2023-03-21T00:55:41;100942.09;;;17.90;59.03
37832;BME280;23671;38.090;-122.570;2023-03-21T00:58:08;100943.44;;;17.86;58.87
37832;BME280;23671;38.090;-122.570;2023-03-21T01:00:36;100946.44;;;17.83;59.18
37832;BME280;23671;38.090;-122.570;2023-03-21T01:03:07;100949.59;;;17.78;58.79
37832;BME280;23671;38.090;-122.570;2023-03-21T01:05:42;100934.06;;;17.74;58.86
37832;BME280;23671;38.090;-122.570;2023-03-21T01:08:28;100923.84;;;17.69;58.70
37832;BME280;23671;38.090;-122.570;2023-03-21T01:10:59;100923.19;;;17.67;58.73
37832;BME280;23671;38.090;-122.570;2023-03-21T01:13:27;100913.81;;;17.63;59.10
37832;BME280;23671;38.090;-122.570;2023-03-21T01:15:56;100905.59;;;17.57;59.09
37832;BME280;23671;38.090;-122.570;2023-03-21T01:18:24;100910.31;;;17.55;58.80
37832;BME280;23671;38.090;-122.570;2023-03-21T01:20:54;100903.59;;;17.51;59.04
37832;BME280;23671;38.090;-122.570;2023-03-21T01:23:22;100896.22;;;17.45;59.01
37832;BME280;23671;38.090;-122.570;2023-03-21T01:25:51;100901.84;;;17.42;59.01
37832;BME280;23671;38.090;-122.570;2023-03-21T01:28:18;100893.50;;;17.37;58.95
37832;BME280;23671;38.090;-122.570;2023-03-21T01:30:50;100878.47;;;17.36;58.86
37832;BME280;23671;38.090;-122.570;2023-03-21T01:33:18;100879.13;;;17.30;58.93
37832;BME280;23671;38.090;-122.570;2023-03-21T01:35:45;100873.25;;;17.26;59.28
37832;BME280;23671;38.090;-122.570;2023-03-21T01:38:13;100875.09;;;17.25;59.01
37832;BME280;23671;38.090;-122.570;2023-03-21T01:40:40;100855.38;;;17.18;59.35
37832;BME280;23671;38.090;-122.570;2023-03-21T01:43:30;100844.34;;;17.13;59.54
37832;BME280;23671;38.090;-122.570;2023-03-21T01:48:31;100849.66;;;17.05;59.31
37832;BME280;23671;38.090;-122.570;2023-03-21T01:50:59;100851.81;;;17.02;59.53
37832;BME280;23671;38.090;-122.570;2023-03-21T01:53:28;100846.94;;;16.97;59.15
37832;BME280;23671;38.090;-122.570;2023-03-21T01:56:05;100843.94;;;16.92;59.01
37832;BME280;23671;38.090;-122.570;2023-03-21T01:58:36;100846.22;;;16.87;58.92
37832;BME280;23671;38.090;-122.570;2023-03-21T02:01:05;100831.56;;;16.83;58.85
37832;BME280;23671;38.090;-122.570;2023-03-21T02:03:33;100839.16;;;16.78;59.26
37832;BME280;23671;38.090;-122.570;2023-03-21T02:06:26;100831.63;;;16.74;59.18
37832;BME280;23671;38.090;-122.570;2023-03-21T02:09:02;100826.97;;;16.68;58.97
37832;BME280;23671;38.090;-122.570;2023-03-21T02:11:30;100815.22;;;16.61;59.06
37832;BME280;23671;38.090;-122.570;2023-03-21T02:13:58;100805.75;;;16.58;59.45
37832;BME280;23671;38.090;-122.570;2023-03-21T02:38:03;100806.34;;;16.09;57.83
37832;BME280;23671;38.090;-122.570;2023-03-21T02:40:42;100816.16;;;16.08;57.82
37832;BME280;23671;38.090;-122.570;2023-03-21T02:49:21;100810.56;;;15.94;57.28
37832;BME280;23671;38.090;-122.570;2023-03-21T02:51:48;100801.50;;;15.87;56.86
37832;BME280;23671;38.090;-122.570;2023-03-21T02:54:18;100801.28;;;15.80;56.62
37832;BME280;23671;38.090;-122.570;2023-03-21T02:56:49;100792.06;;;15.75;56.54
37832;BME280;23671;38.090;-122.570;2023-03-21T02:59:19;100789.34;;;15.67;56.43
37832;BME280;23671;38.090;-122.570;2023-03-21T03:01:50;100789.94;;;15.61;56.41
37832;BME280;23671;38.090;-122.570;2023-03-21T03:04:20;100792.22;;;15.56;56.31
37832;BME280;23671;38.090;-122.570;2023-03-21T03:07:27;100780.50;;;15.48;56.35
37832;BME280;23671;38.090;-122.570;2023-03-21T03:23:52;100801.25;;;15.18;56.12
37832;BME280;23671;38.090;-122.570;2023-03-21T03:28:59;100796.69;;;15.10;56.14
37832;BME280;23671;38.090;-122.570;2023-03-21T03:31:51;100797.41;;;15.03;56.02
37832;BME280;23671;38.090;-122.570;2023-03-21T03:34:23;100792.84;;;14.95;56.20
37832;BME280;23671;38.090;-122.570;2023-03-21T03:36:56;100793.00;;;14.94;56.04
37832;BME280;23671;38.090;-122.570;2023-03-21T03:39:33;100788.41;;;14.86;56.19
37832;BME280;23671;38.090;-122.570;2023-03-21T03:42:47;100791.81;;;14.79;56.24
37832;BME280;23671;38.090;-122.570;2023-03-21T03:45:06;100782.88;;;14.70;56.36
37832;BME280;23671;38.090;-122.570;2023-03-21T03:47:43;100791.44;;;14.64;56.29
37832;BME280;23671;38.090;-122.570;2023-03-21T03:53:26;100797.50;;;14.47;56.47
37832;BME280;23671;38.090;-122.570;2023-03-21T03:55:55;100810.66;;;14.39;56.77
37832;BME280;23671;38.090;-122.570;2023-03-21T03:58:24;100801.59;;;14.32;56.83
37832;BME280;23671;38.090;-122.570;2023-03-21T04:00:53;100802.72;;;14.29;56.96
37832;BME280;23671;38.090;-122.570;2023-03-21T04:03:20;100807.75;;;14.23;56.83
37832;BME280;23671;38.090;-122.570;2023-03-21T04:05:47;100808.44;;;14.15;56.84
37832;BME280;23671;38.090;-122.570;2023-03-21T04:08:15;100815.72;;;14.13;57.32
37832;BME280;23671;38.090;-122.570;2023-03-21T04:10:43;100803.28;;;14.04;57.26
37832;BME280;23671;38.090;-122.570;2023-03-21T04:13:10;100811.53;;;14.01;56.96
37832;BME280;23671;38.090;-122.570;2023-03-21T04:15:37;100803.28;;;13.95;57.18
37832;BME280;23671;38.090;-122.570;2023-03-21T04:18:04;100802.03;;;13.89;57.12
37832;BME280;23671;38.090;-122.570;2023-03-21T04:20:31;100803.28;;;13.85;57.79
37832;BME280;23671;38.090;-122.570;2023-03-21T04:22:58;100794.22;;;13.78;57.58
37832;BME280;23671;38.090;-122.570;2023-03-21T04:25:25;100788.47;;;13.73;57.48
37832;BME280;23671;38.090;-122.570;2023-03-21T04:27:54;100793.53;;;13.66;58.20
37832;BME280;23671;38.090;-122.570;2023-03-21T04:30:21;100799.78;;;13.56;57.60
37832;BME280;23671;38.090;-122.570;2023-03-21T04:32:51;100795.03;;;13.50;57.94
37832;BME280;23671;38.090;-122.570;2023-03-21T04:35:22;100799.78;;;13.46;57.63
37832;BME280;23671;38.090;-122.570;2023-03-21T04:37:50;100789.44;;;13.43;57.91
37832;BME280;23671;38.090;-122.570;2023-03-21T04:40:17;100787.50;;;13.36;57.80
37832;BME280;23671;38.090;-122.570;2023-03-21T04:42:46;100790.53;;;13.31;58.57
37832;BME280;23671;38.090;-122.570;2023-03-21T04:45:14;100794.44;;;13.27;58.48
37832;BME280;23671;38.090;-122.570;2023-03-21T04:47:43;100786.63;;;13.26;57.86
37832;BME280;23671;38.090;-122.570;2023-03-21T04:50:11;100784.53;;;13.20;58.75
37832;BME280;23671;38.090;-122.570;2023-03-21T04:52:39;100783.13;;;13.16;58.06
37832;BME280;23671;38.090;-122.570;2023-03-21T04:55:06;100773.91;;;13.10;58.57
37832;BME280;23671;38.090;-122.570;2023-03-21T04:57:38;100773.34;;;13.07;58.63
37832;BME280;23671;38.090;-122.570;2023-03-21T05:00:08;100773.69;;;13.02;58.85
37832;BME280;23671;38.090;-122.570;2023-03-21T05:02:41;100782.06;;;12.98;58.66
37832;BME280;23671;38.090;-122.570;2023-03-21T05:05:08;100784.03;;;12.96;58.10
37832;BME280;23671;38.090;-122.570;2023-03-21T05:07:40;100765.72;;;12.93;58.99
37832;BME280;23671;38.090;-122.570;2023-03-21T05:10:09;100771.97;;;12.82;58.71
37832;BME280;23671;38.090;-122.570;2023-03-21T05:12:37;100777.28;;;12.82;58.54
37832;BME280;23671;38.090;-122.570;2023-03-21T05:15:05;100779.22;;;12.80;58.71
37832;BME280;23671;38.090;-122.570;2023-03-21T05:17:32;100784.63;;;12.78;58.92
37832;BME280;23671;38.090;-122.570;2023-03-21T05:19:59;100781.97;;;12.78;58.38
37832;BME280;23671;38.090;-122.570;2023-03-21T05:22:26;100775.53;;;12.71;58.26
37832;BME280;23671;38.090;-122.570;2023-03-21T05:24:54;100783.63;;;12.70;58.53
37832;BME280;23671;38.090;-122.570;2023-03-21T05:27:22;100771.91;;;12.63;58.83
37832;BME280;23671;38.090;-122.570;2023-03-21T05:30:03;100766.59;;;12.63;58.33
37832;BME280;23671;38.090;-122.570;2023-03-21T05:32:30;100779.00;;;12.62;59.23
37832;BME280;23671;38.090;-122.570;2023-03-21T05:34:57;100775.78;;;12.59;58.35
37832;BME280;23671;38.090;-122.570;2023-03-21T05:37:24;100768.78;;;12.58;58.74
37832;BME280;23671;38.090;-122.570;2023-03-21T05:39:52;100765.19;;;12.59;59.06
37832;BME280;23671;38.090;-122.570;2023-03-21T05:42:19;100764.22;;;12.60;58.64
37832;BME280;23671;38.090;-122.570;2023-03-21T05:44:46;100756.94;;;12.52;58.77
37832;BME280;23671;38.090;-122.570;2023-03-21T05:47:15;100745.34;;;12.53;58.49
37832;BME280;23671;38.090;-122.570;2023-03-21T05:49:43;100739.38;;;12.51;58.58
37832;BME280;23671;38.090;-122.570;2023-03-21T05:52:11;100738.53;;;12.51;59.12
37832;BME280;23671;38.090;-122.570;2023-03-21T05:54:38;100739.47;;;12.50;58.77
37832;BME280;23671;38.090;-122.570;2023-03-21T05:57:05;100726.94;;;12.52;58.86
37832;BME280;23671;38.090;-122.570;2023-03-21T05:59:32;100729.41;;;12.44;59.11
37832;BME280;23671;38.090;-122.570;2023-03-21T06:01:59;100710.78;;;12.45;59.00
37832;BME280;23671;38.090;-122.570;2023-03-21T06:04:29;100709.66;;;12.48;59.21
37832;BME280;23671;38.090;-122.570;2023-03-21T06:06:56;100708.00;;;12.47;59.01
37832;BME280;23671;38.090;-122.570;2023-03-21T06:09:23;100703.25;;;12.50;58.60
37832;BME280;23671;38.090;-122.570;2023-03-21T06:11:53;100707.69;;;12.50;58.69
37832;BME280;23671;38.090;-122.570;2023-03-21T06:14:21;100706.44;;;12.44;58.66
37832;BME280;23671;38.090;-122.570;2023-03-21T06:16:48;100703.66;;;12.46;58.40
37832;BME280;23671;38.090;-122.570;2023-03-21T06:19:16;100686.25;;;12.43;58.29
37832;BME280;23671;38.090;-122.570;2023-03-21T06:21:43;100688.75;;;12.45;59.19
37832;BME280;23671;38.090;-122.570;2023-03-21T06:24:10;100687.91;;;12.44;58.53
37832;BME280;23671;38.090;-122.570;2023-03-21T06:26:37;100678.00;;;12.46;58.47
37832;BME280;23671;38.090;-122.570;2023-03-21T06:29:04;100671.16;;;12.44;58.68
37832;BME280;23671;38.090;-122.570;2023-03-21T06:31:31;100664.22;;;12.43;58.38
37832;BME280;23671;38.090;-122.570;2023-03-21T06:33:58;100669.38;;;12.44;58.09
37832;BME280;23671;38.090;-122.570;2023-03-21T06:36:25;100665.16;;;12.42;58.39
37832;BME280;23671;38.090;-122.570;2023-03-21T06:38:52;100653.06;;;12.39;59.12
37832;BME280;23671;38.090;-122.570;2023-03-21T06:41:19;100645.81;;;12.41;58.66
37832;BME280;23671;38.090;-122.570;2023-03-21T06:43:47;100641.47;;;12.40;58.88
37832;BME280;23671;38.090;-122.570;2023-03-21T06:46:14;100636.31;;;12.39;58.65
37832;BME280;23671;38.090;-122.570;2023-03-21T06:48:41;100630.19;;;12.38;58.46
37832;BME280;23671;38.090;-122.570;2023-03-21T06:51:11;100615.41;;;12.36;59.12
37832;BME280;23671;38.090;-122.570;2023-03-21T06:53:39;100613.03;;;12.33;58.59
37832;BME280;23671;38.090;-122.570;2023-03-21T06:56:08;100612.06;;;12.34;59.05
37832;BME280;23671;38.090;-122.570;2023-03-21T06:58:35;100614.97;;;12.31;58.87
37832;BME280;23671;38.090;-122.570;2023-03-21T07:01:04;100611.47;;;12.30;58.88
37832;BME280;23671;38.090;-122.570;2023-03-21T07:03:32;100594.91;;;12.28;58.74
37832;BME280;23671;38.090;-122.570;2023-03-21T07:06:07;100593.09;;;12.29;59.26
37832;BME280;23671;38.090;-122.570;2023-03-21T07:08:38;100597.25;;;12.22;59.10
37832;BME280;23671;38.090;-122.570;2023-03-21T07:11:05;100583.88;;;12.23;58.79
37832;BME280;23671;38.090;-122.570;2023-03-21T07:13:33;100576.94;;;12.22;58.72
37832;BME280;23671;38.090;-122.570;2023-03-21T07:16:00;100572.59;;;12.21;58.83
37832;BME280;23671;38.090;-122.570;2023-03-21T07:18:28;100575.53;;;12.18;58.81
37832;BME280;23671;38.090;-122.570;2023-03-21T07:20:56;100569.09;;;12.21;59.21
37832;BME280;23671;38.090;-122.570;2023-03-21T07:23:24;100572.03;;;12.18;59.09
37832;BME280;23671;38.090;-122.570;2023-03-21T07:25:53;100563.09;;;12.19;59.38
37832;BME280;23671;38.090;-122.570;2023-03-21T07:28:21;100559.06;;;12.15;58.88
37832;BME280;23671;38.090;-122.570;2023-03-21T07:30:57;100545.84;;;12.15;59.22
37832;BME280;23671;38.090;-122.570;2023-03-21T07:33:25;100542.34;;;12.14;59.35
37832;BME280;23671;38.090;-122.570;2023-03-21T07:35:53;100541.66;;;12.12;59.02
37832;BME280;23671;38.090;-122.570;2023-03-21T07:38:21;100545.25;;;12.11;58.96
37832;BME280;23671;38.090;-122.570;2023-03-21T07:40:49;100537.31;;;12.11;59.31
37832;BME280;23671;38.090;-122.570;2023-03-21T07:43:16;100534.81;;;12.10;59.00
37832;BME280;23671;38.090;-122.570;2023-03-21T07:45:44;100533.00;;;12.10;59.15
37832;BME280;23671;38.090;-122.570;2023-03-21T07:48:12;100523.66;;;12.06;59.36
37832;BME280;23671;38.090;-122.570;2023-03-21T07:50:40;100530.63;;;12.07;59.63
37832;BME280;23671;38.090;-122.570;2023-03-21T07:53:07;100522.00;;;12.05;59.53
37832;BME280;23671;38.090;-122.570;2023-03-21T07:55:35;100513.38;;;12.03;58.89
37832;BME280;23671;38.090;-122.570;2023-03-21T07:58:03;100516.97;;;12.02;59.10
37832;BME280;23671;38.090;-122.570;2023-03-21T08:00:30;100512.78;;;12.00;59.35
37832;BME280;23671;38.090;-122.570;2023-03-21T08:02:58;100498.72;;;11.99;59.57
37832;BME280;23671;38.090;-122.570;2023-03-21T08:05:33;100498.84;;;11.98;59.21
37832;BME280;23671;38.090;-122.570;2023-03-21T08:08:01;100490.34;;;11.94;59.31
37832;BME280;23671;38.090;-122.570;2023-03-21T08:10:28;100491.03;;;11.96;59.47
37832;BME280;23671;38.090;-122.570;2023-03-21T08:12:55;100495.78;;;11.93;59.28
37832;BME280;23671;38.090;-122.570;2023-03-21T08:15:22;100492.13;;;11.94;59.67
37832;BME280;23671;38.090;-122.570;2023-03-21T08:17:52;100487.13;;;11.91;59.77
37832;BME280;23671;38.090;-122.570;2023-03-21T08:20:21;100482.22;;;11.86;59.79
37832;BME280;23671;38.090;-122.570;2023-03-21T08:22:49;100476.00;;;11.87;59.14
37832;BME280;23671;38.090;-122.570;2023-03-21T08:25:19;100469.00;;;11.86;59.97
37832;BME280;23671;38.090;-122.570;2023-03-21T08:27:48;100465.81;;;11.82;59.34
37832;BME280;23671;38.090;-122.570;2023-03-21T08:30:19;100463.00;;;11.84;59.11
37832;BME280;23671;38.090;-122.570;2023-03-21T08:32:48;100462.44;;;11.80;59.37
37832;BME280;23671;38.090;-122.570;2023-03-21T08:35:17;100455.38;;;11.81;59.69
37832;BME280;23671;38.090;-122.570;2023-03-21T08:37:46;100450.47;;;11.76;59.78
37832;BME280;23671;38.090;-122.570;2023-03-21T08:40:16;100436.28;;;11.77;59.27
37832;BME280;23671;38.090;-122.570;2023-03-21T08:42:43;100433.66;;;11.77;59.39
37832;BME280;23671;38.090;-122.570;2023-03-21T08:45:14;100428.50;;;11.76;59.62
37832;BME280;23671;38.090;-122.570;2023-03-21T08:47:41;100428.59;;;11.74;59.85
37832;BME280;23671;38.090;-122.570;2023-03-21T08:50:11;100420.97;;;11.71;59.77
37832;BME280;23671;38.090;-122.570;2023-03-21T08:52:42;100414.13;;;11.69;59.54
37832;BME280;23671;38.090;-122.570;2023-03-21T08:55:10;100406.34;;;11.67;59.34
37832;BME280;23671;38.090;-122.570;2023-03-21T08:57:37;100401.03;;;11.67;59.44
37832;BME280;23671;38.090;-122.570;2023-03-21T09:00:08;100386.97;;;11.67;59.65
37832;BME280;23671;38.090;-122.570;2023-03-21T09:02:40;100386.25;;;11.65;59.88
37832;BME280;23671;38.090;-122.570;2023-03-21T09:05:09;100387.13;;;11.65;59.31
37832;BME280;23671;38.090;-122.570;2023-03-21T09:07:38;100382.19;;;11.61;59.44
37832;BME280;23671;38.090;-122.570;2023-03-21T09:10:07;100381.63;;;11.57;59.52
37832;BME280;23671;38.090;-122.570;2023-03-21T09:12:35;100377.34;;;11.56;59.66
37832;BME280;23671;38.090;-122.570;2023-03-21T09:15:03;100372.03;;;11.56;59.45
37832;BME280;23671;38.090;-122.570;2023-03-21T09:17:31;100374.00;;;11.54;59.86
37832;BME280;23671;38.090;-122.570;2023-03-21T09:19:58;100365.34;;;11.52;59.54
37832;BME280;23671;38.090;-122.570;2023-03-21T09:22:37;100359.38;;;11.50;59.89
37832;BME280;23671;38.090;-122.570;2023-03-21T09:25:05;100371.59;;;11.51;59.69
37832;BME280;23671;38.090;-122.570;2023-03-21T09:27:34;100362.84;;;11.51;59.50
37832;BME280;23671;38.090;-122.570;2023-03-21T09:30:01;100356.03;;;11.48;59.63
37832;BME280;23671;38.090;-122.570;2023-03-21T09:32:28;100359.75;;;11.46;59.88
37832;BME280;23671;38.090;-122.570;2023-03-21T09:34:56;100357.41;;;11.43;59.79
37832;BME280;23671;38.090;-122.570;2023-03-21T09:37:23;100350.31;;;11.43;59.93
37832;BME280;23671;38.090;-122.570;2023-03-21T09:39:50;100346.97;;;11.41;60.08
37832;BME280;23671;38.090;-122.570;2023-03-21T09:45:26;100336.66;;;11.38;59.67
37832;BME280;23671;38.090;-122.570;2023-03-21T09:47:56;100332.22;;;11.39;59.74
37832;BME280;23671;38.090;-122.570;2023-03-21T09:50:36;100328.88;;;11.37;59.49
37832;BME280;23671;38.090;-122.570;2023-03-21T09:53:22;100326.94;;;11.39;59.71
37832;BME280;23671;38.090;-122.570;2023-03-21T09:55:50;100316.50;;;11.37;59.52
37832;BME280;23671;38.090;-122.570;2023-03-21T10:00:49;100315.94;;;11.34;59.77
37832;BME280;23671;38.090;-122.570;2023-03-21T10:03:31;100313.00;;;11.37;59.75
37832;BME280;23671;38.090;-122.570;2023-03-21T10:06:03;100302.84;;;11.32;59.69
37832;BME280;23671;38.090;-122.570;2023-03-21T10:08:38;100289.06;;;11.29;60.09
37832;BME280;23671;38.090;-122.570;2023-03-21T10:11:30;100294.09;;;11.32;59.58
37832;BME280;23671;38.090;-122.570;2023-03-21T10:17:46;100279.03;;;11.32;59.82
37832;BME280;23671;38.090;-122.570;2023-03-21T10:20:22;100266.81;;;11.31;59.60
37832;BME280;23671;38.090;-122.570;2023-03-21T10:22:43;100261.94;;;11.27;59.88
37832;BME280;23671;38.090;-122.570;2023-03-21T10:25:39;100263.63;;;11.28;59.71
37832;BME280;23671;38.090;-122.570;2023-03-21T10:28:14;100246.91;;;11.27;59.81
37832;BME280;23671;38.090;-122.570;2023-03-21T10:30:56;100245.94;;;11.28;59.75
37832;BME280;23671;38.090;-122.570;2023-03-21T10:33:27;100241.91;;;11.24;59.92
37832;BME280;23671;38.090;-122.570;2023-03-21T10:35:59;100227.88;;;11.24;59.89
37832;BME280;23671;38.090;-122.570;2023-03-21T10:38:26;100219.09;;;11.23;59.98
37832;BME280;23671;38.090;-122.570;2023-03-21T10:40:54;100216.44;;;11.23;59.93
37832;BME280;23671;38.090;-122.570;2023-03-21T10:46:18;100210.88;;;11.17;59.81
37832;BME280;23671;38.090;-122.570;2023-03-21T10:48:53;100198.50;;;11.17;60.00
37832;BME280;23671;38.090;-122.570;2023-03-21T10:51:26;100188.09;;;11.16;60.13
37832;BME280;23671;38.090;-122.570;2023-03-21T10:54:00;100175.97;;;11.13;60.18
37832;BME280;23671;38.090;-122.570;2023-03-21T10:56:33;100173.88;;;11.17;60.25
37832;BME280;23671;38.090;-122.570;2023-03-21T10:59:03;100169.72;;;11.14;59.84
37832;BME280;23671;38.090;-122.570;2023-03-21T11:01:40;100163.06;;;11.10;60.10
37832;BME280;23671;38.090;-122.570;2023-03-21T11:04:21;100154.97;;;11.12;59.96
37832;BME280;23671;38.090;-122.570;2023-03-21T11:07:04;100136.63;;;11.10;60.12
37832;BME280;23671;38.090;-122.570;2023-03-21T11:09:58;100133.16;;;11.10;59.89
37832;BME280;23671;38.090;-122.570;2023-03-21T11:12:39;100126.31;;;11.07;60.13
37832;BME280;23671;38.090;-122.570;2023-03-21T11:15:29;100119.38;;;11.06;60.14
37832;BME280;23671;38.090;-122.570;2023-03-21T11:17:58;100109.66;;;11.07;60.19
37832;BME280;23671;38.090;-122.570;2023-03-21T11:20:28;100101.75;;;11.07;60.17
37832;BME280;23671;38.090;-122.570;2023-03-21T11:22:56;100083.38;;;11.05;60.16
37832;BME280;23671;38.090;-122.570;2023-03-21T11:25:36;100078.22;;;11.04;60.16
37832;BME280;23671;38.090;-122.570;2023-03-21T11:28:25;100058.19;;;11.01;60.33
37832;BME280;23671;38.090;-122.570;2023-03-21T11:31:00;100046.81;;;11.01;60.25
37832;BME280;23671;38.090;-122.570;2023-03-21T11:33:34;100039.72;;;11.01;60.14
37832;BME280;23671;38.090;-122.570;2023-03-21T11:38:39;100019.72;;;10.98;60.49
37832;BME280;23671;38.090;-122.570;2023-03-21T11:41:06;100016.22;;;10.98;60.42
37832;BME280;23671;38.090;-122.570;2023-03-21T11:43:37;100006.22;;;10.92;60.62
37832;BME280;23671;38.090;-122.570;2023-03-21T11:48:43;99991.78;;;10.96;60.06
37832;BME280;23671;38.090;-122.570;2023-03-21T11:56:39;99942.84;;;10.92;60.45
37832;BME280;23671;38.090;-122.570;2023-03-21T11:59:38;99950.06;;;10.90;60.49
37832;BME280;23671;38.090;-122.570;2023-03-21T12:16:12;99884.63;;;10.84;60.55
37832;BME280;23671;38.090;-122.570;2023-03-21T12:19:38;99875.31;;;10.80;60.76
37832;BME280;23671;38.090;-122.570;2023-03-21T12:32:19;99852.56;;;10.79;60.30
37832;BME280;23671;38.090;-122.570;2023-03-21T12:43:12;99842.56;;;10.73;60.64
37832;BME280;23671;38.090;-122.570;2023-03-21T12:45:45;99815.31;;;10.72;60.94
37832;BME280;23671;38.090;-122.570;2023-03-21T12:48:40;99803.94;;;10.72;60.60
37832;BME280;23671;38.090;-122.570;2023-03-21T12:51:19;99806.44;;;10.73;60.80
37832;BME280;23671;38.090;-122.570;2023-03-21T12:54:07;99790.75;;;10.72;61.13
37832;BME280;23671;38.090;-122.570;2023-03-21T12:56:56;99789.06;;;10.71;60.81
37832;BME280;23671;38.090;-122.570;2023-03-21T12:59:33;99779.50;;;10.70;60.71
37832;BME280;23671;38.090;-122.570;2023-03-21T13:05:16;99775.34;;;10.67;60.75
37832;BME280;23671;38.090;-122.570;2023-03-21T13:08:04;99770.91;;;10.68;60.98
37832;BME280;23671;38.090;-122.570;2023-03-21T13:10:33;99763.94;;;10.67;60.60
37832;BME280;23671;38.090;-122.570;2023-03-21T13:24:49;99743.97;;;10.64;60.92
37832;BME280;23671;38.090;-122.570;2023-03-21T13:27:31;99737.00;;;10.63;61.12
37832;BME280;23671;38.090;-122.570;2023-03-21T13:30:04;99738.13;;;10.61;61.16
37832;BME280;23671;38.090;-122.570;2023-03-21T13:32:34;99731.34;;;10.58;61.00
37832;BME280;23671;38.090;-122.570;2023-03-21T13:35:11;99728.69;;;10.58;61.36
37832;BME280;23671;38.090;-122.570;2023-03-21T13:40:50;99708.69;;;10.56;61.41
37832;BME280;23671;38.090;-122.570;2023-03-21T13:43:41;99707.59;;;10.58;61.23
37832;BME280;23671;38.090;-122.570;2023-03-21T13:46:13;99703.56;;;10.54;61.05
37832;BME280;23671;38.090;-122.570;2023-03-21T13:54:00;99690.38;;;10.54;61.16
37832;BME280;23671;38.090;-122.570;2023-03-21T13:56:27;99690.38;;;10.54;61.16
37832;BME280;23671;38.090;-122.570;2023-03-21T13:59:03;99685.09;;;10.54;61.74
37832;BME280;23671;38.090;-122.570;2023-03-21T14:01:38;99682.63;;;10.53;61.87
37832;BME280;23671;38.090;-122.570;2023-03-21T14:04:15;99672.88;;;10.53;61.43
37832;BME280;23671;38.090;-122.570;2023-03-21T14:09:44;99670.69;;;10.49;61.54
37832;BME280;23671;38.090;-122.570;2023-03-21T14:12:17;99659.97;;;10.50;61.78
37832;BME280;23671;38.090;-122.570;2023-03-21T14:14:58;99659.81;;;10.52;61.75
37832;BME280;23671;38.090;-122.570;2023-03-21T14:17:31;99656.66;;;10.48;61.93
37832;BME280;23671;38.090;-122.570;2023-03-21T14:20:20;99646.94;;;10.49;61.76
37832;BME280;23671;38.090;-122.570;2023-03-21T14:22:48;99645.09;;;10.49;61.88
37832;BME280;23671;38.090;-122.570;2023-03-21T14:25:17;99631.09;;;10.49;62.11
37832;BME280;23671;38.090;-122.570;2023-03-21T14:27:46;99630.13;;;10.50;61.79
37832;BME280;23671;38.090;-122.570;2023-03-21T14:33:24;99619.56;;;10.50;61.80
37832;BME280;23671;38.090;-122.570;2023-03-21T14:35:48;99617.22;;;10.47;61.91
37832;BME280;23671;38.090;-122.570;2023-03-21T14:38:28;99617.91;;;10.49;61.98
37832;BME280;23671;38.090;-122.570;2023-03-21T14:40:58;99612.91;;;10.46;62.13
37832;BME280;23671;38.090;-122.570;2023-03-21T14:43:26;99606.94;;;10.44;61.93
37832;BME280;23671;38.090;-122.570;2023-03-21T14:45:55;99599.88;;;10.44;61.92
37832;BME280;23671;38.090;-122.570;2023-03-21T14:48:33;99595.44;;;10.45;62.00
37832;BME280;23671;38.090;-122.570;2023-03-21T14:51:06;99595.44;;;10.45;62.05
37832;BME280;23671;38.090;-122.570;2023-03-21T14:53:40;99586.00;;;10.42;62.15
37832;BME280;23671;38.090;-122.570;2023-03-21T14:56:19;99586.00;;;10.42;62.15
37832;BME280;23671;38.090;-122.570;2023-03-21T14:58:48;99585.16;;;10.42;62.29